Dover AFB, Delaware
Current Conditions -  °F | °C
As of 6:58 AM on Sunday 23 Nov 2014 (Local Time) from KDOV Reporting Station
Overcast Overcast  
Wind Chill: 35°   Ceiling: 10000
Heat Index: 35°   Visibility: 10mi
Dew Point: 24°   Wind: 3mph
Humidity: 64%   Direction: 120°ESE
Pressure: 30.22"   Gusts: NA
Location:  39.16°N, 75.52°W
Report Text: KDOV 231158Z AUTO 12003KT 10SM OVC100 02/M04 A3022 RMK AO2 SLP237 T00191043 10059 20019 52013
Loading
Personal Weather Stations






























Interactive Weather Map New forecast layout! Learn more

10-Day Weather Forecast

Advertisements
Track Severe Weather on mobile